sensor_id;sensor_type;location;lat;lon;timestamp;temperature;humidity
68766;DHT22;55756;45.582;11.484;2023-03-01T00:01:09;9.60;44.30
68766;DHT22;55756;45.582;11.484;2023-03-01T00:03:35;9.50;44.30
68766;DHT22;55756;45.582;11.484;2023-03-01T00:06:01;9.50;44.40
68766;DHT22;55756;45.582;11.484;2023-03-01T00:08:31;9.50;44.50
68766;DHT22;55756;45.582;11.484;2023-03-01T00:11:05;9.40;44.90
68766;DHT22;55756;45.582;11.484;2023-03-01T00:13:31;9.20;45.30
68766;DHT22;55756;45.582;11.484;2023-03-01T00:15:57;9.20;45.50
68766;DHT22;55756;45.582;11.484;2023-03-01T00:18:23;9.20;45.70
68766;DHT22;55756;45.582;11.484;2023-03-01T00:20:55;9.30;45.20
68766;DHT22;55756;45.582;11.484;2023-03-01T00:23:22;9.20;45.30
68766;DHT22;55756;45.582;11.484;2023-03-01T00:25:48;9.20;45.50
68766;DHT22;55756;45.582;11.484;2023-03-01T00:28:14;9.20;45.50
68766;DHT22;55756;45.582;11.484;2023-03-01T00:30:40;9.20;45.50
68766;DHT22;55756;45.582;11.484;2023-03-01T00:33:06;9.20;45.60
68766;DHT22;55756;45.582;11.484;2023-03-01T00:35:35;9.20;45.90
68766;DHT22;55756;45.582;11.484;2023-03-01T00:38:02;9.20;45.80
68766;DHT22;55756;45.582;11.484;2023-03-01T00:40:28;9.20;45.90
68766;DHT22;55756;45.582;11.484;2023-03-01T00:42:54;9.10;46.00
68766;DHT22;55756;45.582;11.484;2023-03-01T00:45:21;9.10;45.80
68766;DHT22;55756;45.582;11.484;2023-03-01T00:47:50;9.10;45.70
68766;DHT22;55756;45.582;11.484;2023-03-01T00:50:17;9.00;45.90
68766;DHT22;55756;45.582;11.484;2023-03-01T00:52:43;9.00;45.70
68766;DHT22;55756;45.582;11.484;2023-03-01T00:55:09;8.90;45.80
68766;DHT22;55756;45.582;11.484;2023-03-01T00:57:35;9.00;45.60
68766;DHT22;55756;45.582;11.484;2023-03-01T01:00:01;8.90;45.80
68766;DHT22;55756;45.582;11.484;2023-03-01T01:02:29;8.90;45.60
68766;DHT22;55756;45.582;11.484;2023-03-01T01:04:55;9.00;45.60
68766;DHT22;55756;45.582;11.484;2023-03-01T01:07:21;8.90;45.60
68766;DHT22;55756;45.582;11.484;2023-03-01T01:09:48;8.90;45.70
68766;DHT22;55756;45.582;11.484;2023-03-01T01:12:13;8.90;45.80
68766;DHT22;55756;45.582;11.484;2023-03-01T01:14:40;8.90;45.60
68766;DHT22;55756;45.582;11.484;2023-03-01T01:17:05;8.90;45.60
68766;DHT22;55756;45.582;11.484;2023-03-01T01:19:31;8.90;45.50
68766;DHT22;55756;45.582;11.484;2023-03-01T01:21:57;8.90;45.50
68766;DHT22;55756;45.582;11.484;2023-03-01T01:24:22;8.90;45.50
68766;DHT22;55756;45.582;11.484;2023-03-01T01:26:48;8.90;45.40
68766;DHT22;55756;45.582;11.484;2023-03-01T01:29:14;9.00;45.30
68766;DHT22;55756;45.582;11.484;2023-03-01T01:31:41;9.00;45.10
68766;DHT22;55756;45.582;11.484;2023-03-01T01:34:14;9.00;45.20
68766;DHT22;55756;45.582;11.484;2023-03-01T01:36:40;9.00;45.30
68766;DHT22;55756;45.582;11.484;2023-03-01T01:39:05;9.00;45.30
68766;DHT22;55756;45.582;11.484;2023-03-01T01:41:32;8.90;45.10
68766;DHT22;55756;45.582;11.484;2023-03-01T01:44:26;8.90;45.30
68766;DHT22;55756;45.582;11.484;2023-03-01T01:47:00;8.90;45.30
68766;DHT22;55756;45.582;11.484;2023-03-01T01:49:32;8.80;45.50
68766;DHT22;55756;45.582;11.484;2023-03-01T01:54:47;8.80;45.60
68766;DHT22;55756;45.582;11.484;2023-03-01T01:57:19;8.80;45.70
68766;DHT22;55756;45.582;11.484;2023-03-01T01:59:54;8.70;45.70
68766;DHT22;55756;45.582;11.484;2023-03-01T02:02:22;8.70;45.80
68766;DHT22;55756;45.582;11.484;2023-03-01T02:04:50;8.70;45.90
68766;DHT22;55756;45.582;11.484;2023-03-01T02:07:20;8.60;45.80
68766;DHT22;55756;45.582;11.484;2023-03-01T02:09:49;8.60;45.90
68766;DHT22;55756;45.582;11.484;2023-03-01T02:12:17;8.50;45.90
68766;DHT22;55756;45.582;11.484;2023-03-01T02:14:46;8.50;45.80
68766;DHT22;55756;45.582;11.484;2023-03-01T02:17:15;8.50;45.70
68766;DHT22;55756;45.582;11.484;2023-03-01T02:22:25;8.50;46.00
68766;DHT22;55756;45.582;11.484;2023-03-01T02:27:40;8.40;46.10
68766;DHT22;55756;45.582;11.484;2023-03-01T02:30:09;8.30;46.20
68766;DHT22;55756;45.582;11.484;2023-03-01T02:32:39;8.30;46.30
68766;DHT22;55756;45.582;11.484;2023-03-01T02:35:12;8.30;46.40
68766;DHT22;55756;45.582;11.484;2023-03-01T02:37:39;8.30;46.40
68766;DHT22;55756;45.582;11.484;2023-03-01T02:40:09;8.40;46.70
68766;DHT22;55756;45.582;11.484;2023-03-01T02:42:53;8.30;46.90
68766;DHT22;55756;45.582;11.484;2023-03-01T02:45:21;8.30;47.40
68766;DHT22;55756;45.582;11.484;2023-03-01T02:47:47;8.30;47.60
68766;DHT22;55756;45.582;11.484;2023-03-01T02:53:43;8.40;47.60
68766;DHT22;55756;45.582;11.484;2023-03-01T02:56:11;8.50;47.80
68766;DHT22;55756;45.582;11.484;2023-03-01T02:58:41;8.40;47.80
68766;DHT22;55756;45.582;11.484;2023-03-01T03:01:12;8.50;47.70
68766;DHT22;55756;45.582;11.484;2023-03-01T03:03:42;8.60;47.50
68766;DHT22;55756;45.582;11.484;2023-03-01T03:06:08;8.60;47.30
68766;DHT22;55756;45.582;11.484;2023-03-01T03:08:35;8.60;47.30
68766;DHT22;55756;45.582;11.484;2023-03-01T03:11:01;8.60;47.40
68766;DHT22;55756;45.582;11.484;2023-03-01T03:13:27;8.70;47.30
68766;DHT22;55756;45.582;11.484;2023-03-01T03:15:56;8.70;47.10
68766;DHT22;55756;45.582;11.484;2023-03-01T03:18:23;8.70;47.30
68766;DHT22;55756;45.582;11.484;2023-03-01T03:20:52;8.80;47.00
68766;DHT22;55756;45.582;11.484;2023-03-01T03:23:22;8.90;46.60
68766;DHT22;55756;45.582;11.484;2023-03-01T03:25:51;8.80;47.10
68766;DHT22;55756;45.582;11.484;2023-03-01T03:28:17;8.90;47.00
68766;DHT22;55756;45.582;11.484;2023-03-01T03:30:44;8.90;46.80
68766;DHT22;55756;45.582;11.484;2023-03-01T03:33:11;8.90;46.70
68766;DHT22;55756;45.582;11.484;2023-03-01T03:35:46;8.90;46.50
68766;DHT22;55756;45.582;11.484;2023-03-01T03:38:13;8.90;46.50
68766;DHT22;55756;45.582;11.484;2023-03-01T03:40:59;8.90;46.40
68766;DHT22;55756;45.582;11.484;2023-03-01T03:43:30;8.90;46.70
68766;DHT22;55756;45.582;11.484;2023-03-01T03:45:56;8.80;47.00
68766;DHT22;55756;45.582;11.484;2023-03-01T03:48:22;8.90;46.70
68766;DHT22;55756;45.582;11.484;2023-03-01T03:50:50;8.90;46.60
68766;DHT22;55756;45.582;11.484;2023-03-01T03:53:17;9.00;46.80
68766;DHT22;55756;45.582;11.484;2023-03-01T03:55:43;9.00;46.90
68766;DHT22;55756;45.582;11.484;2023-03-01T03:58:10;9.00;46.80
68766;DHT22;55756;45.582;11.484;2023-03-01T04:00:41;8.90;46.90
68766;DHT22;55756;45.582;11.484;2023-03-01T04:03:08;8.90;47.20
68766;DHT22;55756;45.582;11.484;2023-03-01T04:05:35;8.80;47.40
68766;DHT22;55756;45.582;11.484;2023-03-01T04:08:02;8.90;46.90
68766;DHT22;55756;45.582;11.484;2023-03-01T04:10:29;8.90;47.00
68766;DHT22;55756;45.582;11.484;2023-03-01T04:12:56;8.90;47.10
68766;DHT22;55756;45.582;11.484;2023-03-01T04:15:23;8.90;47.20
68766;DHT22;55756;45.582;11.484;2023-03-01T04:17:51;8.90;47.10
68766;DHT22;55756;45.582;11.484;2023-03-01T04:20:21;8.90;47.00
68766;DHT22;55756;45.582;11.484;2023-03-01T04:25:54;8.90;47.20
68766;DHT22;55756;45.582;11.484;2023-03-01T04:30:51;8.90;47.00
68766;DHT22;55756;45.582;11.484;2023-03-01T04:33:17;8.90;47.00
68766;DHT22;55756;45.582;11.484;2023-03-01T04:35:44;8.90;47.10
68766;DHT22;55756;45.582;11.484;2023-03-01T04:38:09;8.80;47.30
68766;DHT22;55756;45.582;11.484;2023-03-01T04:40:35;8.80;47.60
68766;DHT22;55756;45.582;11.484;2023-03-01T04:43:02;8.70;47.80
68766;DHT22;55756;45.582;11.484;2023-03-01T04:45:28;8.70;47.80
68766;DHT22;55756;45.582;11.484;2023-03-01T04:47:54;8.70;48.30
68766;DHT22;55756;45.582;11.484;2023-03-01T04:50:20;8.70;48.20
68766;DHT22;55756;45.582;11.484;2023-03-01T04:52:46;8.70;48.10
68766;DHT22;55756;45.582;11.484;2023-03-01T04:55:13;8.80;47.70
68766;DHT22;55756;45.582;11.484;2023-03-01T04:57:42;8.80;47.70
68766;DHT22;55756;45.582;11.484;2023-03-01T05:00:10;8.80;47.90
68766;DHT22;55756;45.582;11.484;2023-03-01T05:02:57;8.80;47.90
68766;DHT22;55756;45.582;11.484;2023-03-01T05:05:34;8.70;48.20
68766;DHT22;55756;45.582;11.484;2023-03-01T05:08:06;8.80;47.90
68766;DHT22;55756;45.582;11.484;2023-03-01T05:10:35;8.80;47.80
68766;DHT22;55756;45.582;11.484;2023-03-01T05:13:02;8.80;47.90
68766;DHT22;55756;45.582;11.484;2023-03-01T05:15:30;8.80;48.10
68766;DHT22;55756;45.582;11.484;2023-03-01T05:17:58;8.80;48.10
68766;DHT22;55756;45.582;11.484;2023-03-01T05:20:25;8.90;48.10
68766;DHT22;55756;45.582;11.484;2023-03-01T05:22:55;8.90;47.80
68766;DHT22;55756;45.582;11.484;2023-03-01T05:25:21;8.90;47.90
68766;DHT22;55756;45.582;11.484;2023-03-01T05:27:47;8.90;47.90
68766;DHT22;55756;45.582;11.484;2023-03-01T05:30:14;8.90;47.90
68766;DHT22;55756;45.582;11.484;2023-03-01T05:32:47;8.90;48.20
68766;DHT22;55756;45.582;11.484;2023-03-01T05:35:16;8.90;48.10
68766;DHT22;55756;45.582;11.484;2023-03-01T05:37:47;8.90;48.10
68766;DHT22;55756;45.582;11.484;2023-03-01T05:40:20;8.90;48.30
68766;DHT22;55756;45.582;11.484;2023-03-01T05:42:49;8.80;48.50
68766;DHT22;55756;45.582;11.484;2023-03-01T05:45:16;8.90;48.60
68766;DHT22;55756;45.582;11.484;2023-03-01T05:47:43;8.90;48.50
68766;DHT22;55756;45.582;11.484;2023-03-01T05:50:12;8.90;48.60
68766;DHT22;55756;45.582;11.484;2023-03-01T05:52:38;8.90;48.70
68766;DHT22;55756;45.582;11.484;2023-03-01T05:55:04;8.90;48.80
68766;DHT22;55756;45.582;11.484;2023-03-01T05:57:30;8.90;48.90
68766;DHT22;55756;45.582;11.484;2023-03-01T05:59:56;8.80;48.80
68766;DHT22;55756;45.582;11.484;2023-03-01T06:02:21;8.80;48.90
68766;DHT22;55756;45.582;11.484;2023-03-01T06:04:47;8.80;48.90
68766;DHT22;55756;45.582;11.484;2023-03-01T06:07:13;8.80;48.90
68766;DHT22;55756;45.582;11.484;2023-03-01T06:09:38;8.80;49.10
68766;DHT22;55756;45.582;11.484;2023-03-01T06:12:04;8.80;49.20
68766;DHT22;55756;45.582;11.484;2023-03-01T06:14:30;8.80;49.40
68766;DHT22;55756;45.582;11.484;2023-03-01T06:16:58;8.90;49.10
68766;DHT22;55756;45.582;11.484;2023-03-01T06:19:23;8.80;49.40
68766;DHT22;55756;45.582;11.484;2023-03-01T06:21:50;8.80;49.50
68766;DHT22;55756;45.582;11.484;2023-03-01T06:24:16;8.90;49.50
68766;DHT22;55756;45.582;11.484;2023-03-01T06:26:42;8.90;49.60
68766;DHT22;55756;45.582;11.484;2023-03-01T06:29:08;8.80;49.80
68766;DHT22;55756;45.582;11.484;2023-03-01T06:31:34;8.90;50.00
68766;DHT22;55756;45.582;11.484;2023-03-01T06:34:00;8.90;49.80
68766;DHT22;55756;45.582;11.484;2023-03-01T06:36:25;9.00;49.80
68766;DHT22;55756;45.582;11.484;2023-03-01T06:38:51;9.00;49.70
68766;DHT22;55756;45.582;11.484;2023-03-01T06:41:17;9.00;49.90
68766;DHT22;55756;45.582;11.484;2023-03-01T06:43:42;9.00;49.90
68766;DHT22;55756;45.582;11.484;2023-03-01T06:46:08;9.10;49.80
68766;DHT22;55756;45.582;11.484;2023-03-01T06:48:34;9.00;49.80
68766;DHT22;55756;45.582;11.484;2023-03-01T06:51:00;9.10;49.80
68766;DHT22;55756;45.582;11.484;2023-03-01T06:53:27;9.20;49.60
68766;DHT22;55756;45.582;11.484;2023-03-01T06:55:58;9.20;49.60
68766;DHT22;55756;45.582;11.484;2023-03-01T06:58:25;9.20;49.70
68766;DHT22;55756;45.582;11.484;2023-03-01T07:00:51;9.20;49.70
68766;DHT22;55756;45.582;11.484;2023-03-01T07:03:17;9.30;49.80
68766;DHT22;55756;45.582;11.484;2023-03-01T07:05:43;9.30;50.10
68766;DHT22;55756;45.582;11.484;2023-03-01T07:08:10;9.40;50.30
68766;DHT22;55756;45.582;11.484;2023-03-01T07:10:35;9.40;50.40
68766;DHT22;55756;45.582;11.484;2023-03-01T07:13:01;9.50;50.10
68766;DHT22;55756;45.582;11.484;2023-03-01T07:15:27;9.50;50.00
68766;DHT22;55756;45.582;11.484;2023-03-01T07:17:53;9.60;49.50
68766;DHT22;55756;45.582;11.484;2023-03-01T07:20:20;9.60;49.30
68766;DHT22;55756;45.582;11.484;2023-03-01T07:22:51;9.70;49.40
68766;DHT22;55756;45.582;11.484;2023-03-01T07:25:18;9.70;49.70
68766;DHT22;55756;45.582;11.484;2023-03-01T07:27:43;9.70;50.10
68766;DHT22;55756;45.582;11.484;2023-03-01T07:30:10;9.70;50.40
68766;DHT22;55756;45.582;11.484;2023-03-01T07:32:36;9.70;50.50
68766;DHT22;55756;45.582;11.484;2023-03-01T07:35:01;9.80;50.80
68766;DHT22;55756;45.582;11.484;2023-03-01T07:37:30;9.80;50.70
68766;DHT22;55756;45.582;11.484;2023-03-01T07:39:56;9.80;50.40
68766;DHT22;55756;45.582;11.484;2023-03-01T07:42:22;9.90;50.40
68766;DHT22;55756;45.582;11.484;2023-03-01T07:44:48;9.90;50.50
68766;DHT22;55756;45.582;11.484;2023-03-01T07:47:13;9.90;50.60
68766;DHT22;55756;45.582;11.484;2023-03-01T07:49:39;9.90;50.30
68766;DHT22;55756;45.582;11.484;2023-03-01T07:52:05;9.90;50.00
68766;DHT22;55756;45.582;11.484;2023-03-01T07:54:31;10.00;50.00
68766;DHT22;55756;45.582;11.484;2023-03-01T07:56:57;10.00;49.70
68766;DHT22;55756;45.582;11.484;2023-03-01T07:59:23;10.00;49.70
68766;DHT22;55756;45.582;11.484;2023-03-01T08:01:55;10.10;49.60
68766;DHT22;55756;45.582;11.484;2023-03-01T08:04:22;10.10;49.70
68766;DHT22;55756;45.582;11.484;2023-03-01T08:06:54;10.20;49.80
68766;DHT22;55756;45.582;11.484;2023-03-01T08:09:19;10.20;50.10
68766;DHT22;55756;45.582;11.484;2023-03-01T08:11:45;10.30;50.30
68766;DHT22;55756;45.582;11.484;2023-03-01T08:14:11;10.40;50.00
68766;DHT22;55756;45.582;11.484;2023-03-01T08:16:37;10.50;49.90
68766;DHT22;55756;45.582;11.484;2023-03-01T08:19:07;10.60;49.90
68766;DHT22;55756;45.582;11.484;2023-03-01T08:21:33;10.70;49.60
68766;DHT22;55756;45.582;11.484;2023-03-01T08:24:06;10.80;49.50
68766;DHT22;55756;45.582;11.484;2023-03-01T08:26:33;10.80;49.30
68766;DHT22;55756;45.582;11.484;2023-03-01T08:28:59;10.90;49.00
68766;DHT22;55756;45.582;11.484;2023-03-01T08:31:36;10.90;48.90
68766;DHT22;55756;45.582;11.484;2023-03-01T08:34:08;11.00;48.70
68766;DHT22;55756;45.582;11.484;2023-03-01T08:36:37;11.00;48.70
68766;DHT22;55756;45.582;11.484;2023-03-01T08:39:04;11.10;48.90
68766;DHT22;55756;45.582;11.484;2023-03-01T08:41:29;11.10;49.20
68766;DHT22;55756;45.582;11.484;2023-03-01T08:44:04;11.20;48.90
68766;DHT22;55756;45.582;11.484;2023-03-01T08:46:33;11.20;48.90
68766;DHT22;55756;45.582;11.484;2023-03-01T08:48:59;11.30;49.00
68766;DHT22;55756;45.582;11.484;2023-03-01T08:51:25;11.30;48.50
68766;DHT22;55756;45.582;11.484;2023-03-01T08:54:00;11.40;47.90
68766;DHT22;55756;45.582;11.484;2023-03-01T08:56:26;11.40;47.80
68766;DHT22;55756;45.582;11.484;2023-03-01T08:58:52;11.50;47.70
68766;DHT22;55756;45.582;11.484;2023-03-01T09:01:18;11.50;47.50
68766;DHT22;55756;45.582;11.484;2023-03-01T09:03:45;11.50;46.10
68766;DHT22;55756;45.582;11.484;2023-03-01T09:06:11;11.50;45.80
68766;DHT22;55756;45.582;11.484;2023-03-01T09:08:42;11.60;45.60
68766;DHT22;55756;45.582;11.484;2023-03-01T09:11:10;11.70;45.30
68766;DHT22;55756;45.582;11.484;2023-03-01T09:13:36;11.70;45.00
68766;DHT22;55756;45.582;11.484;2023-03-01T09:16:04;11.70;44.80
68766;DHT22;55756;45.582;11.484;2023-03-01T09:18:31;11.80;44.00
68766;DHT22;55756;45.582;11.484;2023-03-01T09:21:14;11.90;43.60
68766;DHT22;55756;45.582;11.484;2023-03-01T09:23:45;12.00;43.50
68766;DHT22;55756;45.582;11.484;2023-03-01T09:26:17;12.10;43.00
68766;DHT22;55756;45.582;11.484;2023-03-01T09:28:45;12.10;43.10
68766;DHT22;55756;45.582;11.484;2023-03-01T09:31:11;12.10;41.80
68766;DHT22;55756;45.582;11.484;2023-03-01T09:33:41;12.20;42.30
68766;DHT22;55756;45.582;11.484;2023-03-01T09:36:20;12.30;42.30
68766;DHT22;55756;45.582;11.484;2023-03-01T09:38:46;12.40;41.60
68766;DHT22;55756;45.582;11.484;2023-03-01T09:44:42;12.60;42.00
68766;DHT22;55756;45.582;11.484;2023-03-01T09:47:18;12.60;41.40
68766;DHT22;55756;45.582;11.484;2023-03-01T09:49:57;12.70;41.70
68766;DHT22;55756;45.582;11.484;2023-03-01T09:52:33;12.80;42.50
68766;DHT22;55756;45.582;11.484;2023-03-01T09:55:00;12.90;42.60
68766;DHT22;55756;45.582;11.484;2023-03-01T10:02:46;13.00;41.60
68766;DHT22;55756;45.582;11.484;2023-03-01T10:05:19;13.10;41.50
68766;DHT22;55756;45.582;11.484;2023-03-01T10:10:32;13.10;42.50
68766;DHT22;55756;45.582;11.484;2023-03-01T10:13:02;13.20;42.30
68766;DHT22;55756;45.582;11.484;2023-03-01T10:15:38;13.30;41.90
68766;DHT22;55756;45.582;11.484;2023-03-01T10:18:32;13.30;41.80
68766;DHT22;55756;45.582;11.484;2023-03-01T10:21:01;13.40;41.80
68766;DHT22;55756;45.582;11.484;2023-03-01T10:23:30;13.40;41.10
68766;DHT22;55756;45.582;11.484;2023-03-01T10:29:27;13.50;41.40
68766;DHT22;55756;45.582;11.484;2023-03-01T10:31:55;13.50;41.00
68766;DHT22;55756;45.582;11.484;2023-03-01T10:36:56;13.60;41.10
68766;DHT22;55756;45.582;11.484;2023-03-01T10:39:29;13.70;40.90
68766;DHT22;55756;45.582;11.484;2023-03-01T10:42:01;13.70;40.70
68766;DHT22;55756;45.582;11.484;2023-03-01T10:44:40;13.70;40.80
68766;DHT22;55756;45.582;11.484;2023-03-01T10:47:23;13.80;40.10
68766;DHT22;55756;45.582;11.484;2023-03-01T10:50:02;13.80;40.00
68766;DHT22;55756;45.582;11.484;2023-03-01T10:52:36;13.90;40.70
68766;DHT22;55756;45.582;11.484;2023-03-01T10:57:43;13.90;40.30
68766;DHT22;55756;45.582;11.484;2023-03-01T11:00:21;14.00;40.70
68766;DHT22;55756;45.582;11.484;2023-03-01T11:03:11;14.00;40.40
68766;DHT22;55756;45.582;11.484;2023-03-01T11:05:57;14.10;40.40
68766;DHT22;55756;45.582;11.484;2023-03-01T11:08:43;14.10;40.40
68766;DHT22;55756;45.582;11.484;2023-03-01T11:13:59;14.20;40.20
68766;DHT22;55756;45.582;11.484;2023-03-01T11:16:37;14.30;40.50
68766;DHT22;55756;45.582;11.484;2023-03-01T11:22:10;14.20;39.70
68766;DHT22;55756;45.582;11.484;2023-03-01T11:24:54;14.20;40.10
68766;DHT22;55756;45.582;11.484;2023-03-01T11:27:36;14.10;40.10
68766;DHT22;55756;45.582;11.484;2023-03-01T11:30:26;14.10;40.40
68766;DHT22;55756;45.582;11.484;2023-03-01T11:33:16;14.20;41.00
68766;DHT22;55756;45.582;11.484;2023-03-01T11:35:55;14.20;40.60
68766;DHT22;55756;45.582;11.484;2023-03-01T11:38:25;14.20;40.20
68766;DHT22;55756;45.582;11.484;2023-03-01T11:54:30;14.10;42.50
68766;DHT22;55756;45.582;11.484;2023-03-01T11:57:04;14.10;43.00
68766;DHT22;55756;45.582;11.484;2023-03-01T12:10:32;14.00;42.80
68766;DHT22;55756;45.582;11.484;2023-03-01T12:26:53;13.90;42.20
68766;DHT22;55756;45.582;11.484;2023-03-01T12:32:40;14.00;40.70
68766;DHT22;55756;45.582;11.484;2023-03-01T12:50:47;13.90;39.60
68766;DHT22;55756;45.582;11.484;2023-03-01T12:53:36;13.90;39.70
68766;DHT22;55756;45.582;11.484;2023-03-01T12:56:21;13.90;40.00
68766;DHT22;55756;45.582;11.484;2023-03-01T13:10:31;13.80;39.50
68766;DHT22;55756;45.582;11.484;2023-03-01T13:13:13;13.90;39.70
68766;DHT22;55756;45.582;11.484;2023-03-01T13:15:39;13.80;40.20
68766;DHT22;55756;45.582;11.484;2023-03-01T13:26:06;13.70;43.90
68766;DHT22;55756;45.582;11.484;2023-03-01T13:28:48;13.60;44.10
68766;DHT22;55756;45.582;11.484;2023-03-01T13:33:46;13.60;44.50
68766;DHT22;55756;45.582;11.484;2023-03-01T13:41:49;13.50;46.10
68766;DHT22;55756;45.582;11.484;2023-03-01T13:44:34;13.40;46.30
68766;DHT22;55756;45.582;11.484;2023-03-01T13:50:00;13.30;47.60
68766;DHT22;55756;45.582;11.484;2023-03-01T13:52:44;13.20;49.00
68766;DHT22;55756;45.582;11.484;2023-03-01T13:57:40;13.10;50.00
68766;DHT22;55756;45.582;11.484;2023-03-01T14:00:30;13.10;50.60
68766;DHT22;55756;45.582;11.484;2023-03-01T14:03:14;13.00;50.20
68766;DHT22;55756;45.582;11.484;2023-03-01T14:05:43;13.00;50.80
68766;DHT22;55756;45.582;11.484;2023-03-01T14:08:21;13.00;50.60
68766;DHT22;55756;45.582;11.484;2023-03-01T14:11:00;12.90;49.90
68766;DHT22;55756;45.582;11.484;2023-03-01T14:13:46;12.90;50.10
68766;DHT22;55756;45.582;11.484;2023-03-01T14:16:36;12.90;50.40
68766;DHT22;55756;45.582;11.484;2023-03-01T14:21:36;12.80;51.30
68766;DHT22;55756;45.582;11.484;2023-03-01T14:24:02;12.80;51.30
68766;DHT22;55756;45.582;11.484;2023-03-01T14:26:31;12.80;51.40
68766;DHT22;55756;45.582;11.484;2023-03-01T14:28:58;12.80;51.50
68766;DHT22;55756;45.582;11.484;2023-03-01T14:31:38;12.80;51.20
68766;DHT22;55756;45.582;11.484;2023-03-01T14:34:05;12.70;51.30
68766;DHT22;55756;45.582;11.484;2023-03-01T14:36:34;12.80;51.40
68766;DHT22;55756;45.582;11.484;2023-03-01T14:39:00;12.80;51.70
68766;DHT22;55756;45.582;11.484;2023-03-01T14:41:33;12.80;51.80
68766;DHT22;55756;45.582;11.484;2023-03-01T14:44:05;12.80;52.40
68766;DHT22;55756;45.582;11.484;2023-03-01T14:46:36;12.80;52.10
68766;DHT22;55756;45.582;11.484;2023-03-01T14:49:15;12.90;52.50
68766;DHT22;55756;45.582;11.484;2023-03-01T14:52:05;12.90;52.60
68766;DHT22;55756;45.582;11.484;2023-03-01T14:54:44;12.90;53.30
68766;DHT22;55756;45.582;11.484;2023-03-01T14:57:26;12.90;54.40
68766;DHT22;55756;45.582;11.484;2023-03-01T14:59:54;12.90;53.10
68766;DHT22;55756;45.582;11.484;2023-03-01T15:02:26;12.90;52.40
68766;DHT22;55756;45.582;11.484;2023-03-01T15:04:58;12.90;53.20
68766;DHT22;55756;45.582;11.484;2023-03-01T15:07:29;12.90;53.40
68766;DHT22;55756;45.582;11.484;2023-03-01T15:09:57;12.90;53.50
68766;DHT22;55756;45.582;11.484;2023-03-01T15:14:57;12.90;53.00
68766;DHT22;55756;45.582;11.484;2023-03-01T15:17:37;12.90;52.60
68766;DHT22;55756;45.582;11.484;2023-03-01T15:20:16;12.90;53.40
68766;DHT22;55756;45.582;11.484;2023-03-01T15:22:46;12.90;53.20
68766;DHT22;55756;45.582;11.484;2023-03-01T15:25:25;12.90;52.80
68766;DHT22;55756;45.582;11.484;2023-03-01T15:27:53;12.90;52.30
68766;DHT22;55756;45.582;11.484;2023-03-01T15:32:46;13.00;54.30
68766;DHT22;55756;45.582;11.484;2023-03-01T15:35:40;13.00;54.10
68766;DHT22;55756;45.582;11.484;2023-03-01T15:38:27;12.90;55.30
68766;DHT22;55756;45.582;11.484;2023-03-01T15:41:01;12.80;54.50
68766;DHT22;55756;45.582;11.484;2023-03-01T15:43:46;12.80;52.50
68766;DHT22;55756;45.582;11.484;2023-03-01T15:46:35;12.80;53.70
68766;DHT22;55756;45.582;11.484;2023-03-01T15:49:39;12.80;54.60
68766;DHT22;55756;45.582;11.484;2023-03-01T15:52:22;12.80;54.80
68766;DHT22;55756;45.582;11.484;2023-03-01T15:54:56;12.80;54.10
68766;DHT22;55756;45.582;11.484;2023-03-01T15:57:21;12.80;54.50
68766;DHT22;55756;45.582;11.484;2023-03-01T15:59:47;12.80;54.80
68766;DHT22;55756;45.582;11.484;2023-03-01T16:02:13;12.80;55.40
68766;DHT22;55756;45.582;11.484;2023-03-01T16:04:39;12.80;54.70
68766;DHT22;55756;45.582;11.484;2023-03-01T16:07:05;12.80;55.10
68766;DHT22;55756;45.582;11.484;2023-03-01T16:09:31;12.80;54.40
68766;DHT22;55756;45.582;11.484;2023-03-01T16:12:00;12.80;54.50
68766;DHT22;55756;45.582;11.484;2023-03-01T16:14:27;12.90;55.50
68766;DHT22;55756;45.582;11.484;2023-03-01T16:16:53;12.80;55.20
68766;DHT22;55756;45.582;11.484;2023-03-01T16:19:19;12.80;54.40
68766;DHT22;55756;45.582;11.484;2023-03-01T16:21:45;12.80;54.20
68766;DHT22;55756;45.582;11.484;2023-03-01T16:24:13;12.80;54.70
68766;DHT22;55756;45.582;11.484;2023-03-01T16:26:39;12.90;54.80
68766;DHT22;55756;45.582;11.484;2023-03-01T16:29:05;12.90;55.30
68766;DHT22;55756;45.582;11.484;2023-03-01T16:31:30;12.90;56.10
68766;DHT22;55756;45.582;11.484;2023-03-01T16:33:58;12.80;56.70
68766;DHT22;55756;45.582;11.484;2023-03-01T16:36:26;12.80;56.90
68766;DHT22;55756;45.582;11.484;2023-03-01T16:38:55;12.80;57.20
68766;DHT22;55756;45.582;11.484;2023-03-01T16:41:23;12.70;57.30
68766;DHT22;55756;45.582;11.484;2023-03-01T16:43:52;12.70;57.80
68766;DHT22;55756;45.582;11.484;2023-03-01T16:46:21;12.60;57.70
68766;DHT22;55756;45.582;11.484;2023-03-01T16:48:47;12.60;57.80
68766;DHT22;55756;45.582;11.484;2023-03-01T16:51:14;12.60;56.40
68766;DHT22;55756;45.582;11.484;2023-03-01T16:53:40;12.50;55.70
68766;DHT22;55756;45.582;11.484;2023-03-01T16:56:08;12.50;56.50
68766;DHT22;55756;45.582;11.484;2023-03-01T16:58:38;12.50;56.90
68766;DHT22;55756;45.582;11.484;2023-03-01T17:01:16;12.50;57.00
68766;DHT22;55756;45.582;11.484;2023-03-01T17:03:44;12.40;57.00
68766;DHT22;55756;45.582;11.484;2023-03-01T17:06:11;12.40;57.90
68766;DHT22;55756;45.582;11.484;2023-03-01T17:08:38;12.40;58.10
68766;DHT22;55756;45.582;11.484;2023-03-01T17:11:10;12.30;58.30
68766;DHT22;55756;45.582;11.484;2023-03-01T17:13:37;12.40;58.50
68766;DHT22;55756;45.582;11.484;2023-03-01T17:16:05;12.40;58.40
68766;DHT22;55756;45.582;11.484;2023-03-01T17:18:31;12.30;58.70
68766;DHT22;55756;45.582;11.484;2023-03-01T17:20:58;12.30;59.40
68766;DHT22;55756;45.582;11.484;2023-03-01T17:23:24;12.30;59.80
68766;DHT22;55756;45.582;11.484;2023-03-01T17:25:52;12.30;59.80
68766;DHT22;55756;45.582;11.484;2023-03-01T17:28:23;12.30;60.10
68766;DHT22;55756;45.582;11.484;2023-03-01T17:30:50;12.30;60.50
68766;DHT22;55756;45.582;11.484;2023-03-01T17:33:16;12.30;60.10
68766;DHT22;55756;45.582;11.484;2023-03-01T17:35:42;12.30;60.00
68766;DHT22;55756;45.582;11.484;2023-03-01T17:38:10;12.30;60.20
68766;DHT22;55756;45.582;11.484;2023-03-01T17:40:36;12.30;60.60
68766;DHT22;55756;45.582;11.484;2023-03-01T17:43:04;12.30;60.60
68766;DHT22;55756;45.582;11.484;2023-03-01T17:45:30;12.30;61.10
68766;DHT22;55756;45.582;11.484;2023-03-01T17:47:55;12.30;61.30
68766;DHT22;55756;45.582;11.484;2023-03-01T17:50:23;12.30;61.10
68766;DHT22;55756;45.582;11.484;2023-03-01T17:52:51;12.20;61.20
68766;DHT22;55756;45.582;11.484;2023-03-01T17:55:19;12.20;61.30
68766;DHT22;55756;45.582;11.484;2023-03-01T17:57:45;12.20;61.20
68766;DHT22;55756;45.582;11.484;2023-03-01T18:00:13;12.20;61.30